sensor_id;sensor_type;location;lat;lon;timestamp;temperature;humidity
3602;DHT22;1815;50.950;6.920;2023-07-08T00:01:56;24.30;43.40
3602;DHT22;1815;50.950;6.920;2023-07-08T00:04:21;24.30;43.50
3602;DHT22;1815;50.950;6.920;2023-07-08T00:06:47;24.20;43.50
3602;DHT22;1815;50.950;6.920;2023-07-08T00:09:13;24.10;43.60
3602;DHT22;1815;50.950;6.920;2023-07-08T00:11:39;24.10;43.70
3602;DHT22;1815;50.950;6.920;2023-07-08T00:14:04;24.00;43.80
3602;DHT22;1815;50.950;6.920;2023-07-08T00:16:30;23.90;44.00
3602;DHT22;1815;50.950;6.920;2023-07-08T00:18:56;23.90;43.90
3602;DHT22;1815;50.950;6.920;2023-07-08T00:21:21;23.80;44.00
3602;DHT22;1815;50.950;6.920;2023-07-08T00:23:49;23.80;44.10
3602;DHT22;1815;50.950;6.920;2023-07-08T00:26:30;23.80;44.20
3602;DHT22;1815;50.950;6.920;2023-07-08T00:28:59;23.70;44.60
3602;DHT22;1815;50.950;6.920;2023-07-08T00:31:25;23.70;44.50
3602;DHT22;1815;50.950;6.920;2023-07-08T00:33:52;23.60;44.50
3602;DHT22;1815;50.950;6.920;2023-07-08T00:36:21;23.60;44.60
3602;DHT22;1815;50.950;6.920;2023-07-08T00:38:48;23.60;44.80
3602;DHT22;1815;50.950;6.920;2023-07-08T00:41:25;23.60;44.80
3602;DHT22;1815;50.950;6.920;2023-07-08T00:43:55;23.50;45.50
3602;DHT22;1815;50.950;6.920;2023-07-08T00:51:37;23.50;45.50
3602;DHT22;1815;50.950;6.920;2023-07-08T00:54:11;23.50;45.40
3602;DHT22;1815;50.950;6.920;2023-07-08T00:56:49;23.50;45.90
3602;DHT22;1815;50.950;6.920;2023-07-08T00:59:23;23.50;46.00
3602;DHT22;1815;50.950;6.920;2023-07-08T01:01:50;23.50;46.10
3602;DHT22;1815;50.950;6.920;2023-07-08T01:04:24;23.50;45.70
3602;DHT22;1815;50.950;6.920;2023-07-08T01:06:53;23.50;46.00
3602;DHT22;1815;50.950;6.920;2023-07-08T01:09:28;23.50;46.10
3602;DHT22;1815;50.950;6.920;2023-07-08T01:11:57;23.50;45.90
3602;DHT22;1815;50.950;6.920;2023-07-08T01:14:27;23.50;46.00
3602;DHT22;1815;50.950;6.920;2023-07-08T01:17:10;23.50;46.20
3602;DHT22;1815;50.950;6.920;2023-07-08T01:19:43;23.50;46.10
3602;DHT22;1815;50.950;6.920;2023-07-08T01:22:10;23.50;46.40
3602;DHT22;1815;50.950;6.920;2023-07-08T01:24:38;23.50;46.40
3602;DHT22;1815;50.950;6.920;2023-07-08T01:27:07;23.50;46.50
3602;DHT22;1815;50.950;6.920;2023-07-08T01:29:34;23.40;46.60
3602;DHT22;1815;50.950;6.920;2023-07-08T01:32:00;23.40;46.80
3602;DHT22;1815;50.950;6.920;2023-07-08T01:34:34;23.40;46.80
3602;DHT22;1815;50.950;6.920;2023-07-08T01:37:03;23.40;46.90
3602;DHT22;1815;50.950;6.920;2023-07-08T01:39:31;23.40;47.00
3602;DHT22;1815;50.950;6.920;2023-07-08T01:41:58;23.40;47.00
3602;DHT22;1815;50.950;6.920;2023-07-08T01:44:33;23.40;47.00
3602;DHT22;1815;50.950;6.920;2023-07-08T01:47:11;23.30;47.20
3602;DHT22;1815;50.950;6.920;2023-07-08T01:49:39;23.30;47.20
3602;DHT22;1815;50.950;6.920;2023-07-08T01:52:07;23.30;47.20
3602;DHT22;1815;50.950;6.920;2023-07-08T01:54:33;23.30;47.30
3602;DHT22;1815;50.950;6.920;2023-07-08T01:56:58;23.30;47.30
3602;DHT22;1815;50.950;6.920;2023-07-08T01:59:26;23.20;47.50
3602;DHT22;1815;50.950;6.920;2023-07-08T02:01:52;23.20;47.70
3602;DHT22;1815;50.950;6.920;2023-07-08T02:04:22;23.20;47.80
3602;DHT22;1815;50.950;6.920;2023-07-08T02:06:57;23.20;47.80
3602;DHT22;1815;50.950;6.920;2023-07-08T02:09:23;23.20;48.30
3602;DHT22;1815;50.950;6.920;2023-07-08T02:11:51;23.20;48.00
3602;DHT22;1815;50.950;6.920;2023-07-08T02:14:16;23.10;48.00
3602;DHT22;1815;50.950;6.920;2023-07-08T02:16:42;23.10;48.30
3602;DHT22;1815;50.950;6.920;2023-07-08T02:19:09;23.10;48.10
3602;DHT22;1815;50.950;6.920;2023-07-08T02:21:35;23.10;48.20
3602;DHT22;1815;50.950;6.920;2023-07-08T02:24:02;23.10;48.40
3602;DHT22;1815;50.950;6.920;2023-07-08T02:26:28;23.10;48.30
3602;DHT22;1815;50.950;6.920;2023-07-08T02:28:58;23.10;48.80
3602;DHT22;1815;50.950;6.920;2023-07-08T02:31:25;23.10;48.40
3602;DHT22;1815;50.950;6.920;2023-07-08T02:33:52;23.10;48.40
3602;DHT22;1815;50.950;6.920;2023-07-08T02:36:18;23.10;48.50
3602;DHT22;1815;50.950;6.920;2023-07-08T02:38:44;23.10;48.80
3602;DHT22;1815;50.950;6.920;2023-07-08T02:41:09;23.10;48.70
3602;DHT22;1815;50.950;6.920;2023-07-08T02:43:39;23.00;48.80
3602;DHT22;1815;50.950;6.920;2023-07-08T02:46:05;23.00;48.80
3602;DHT22;1815;50.950;6.920;2023-07-08T02:48:31;23.00;48.80
3602;DHT22;1815;50.950;6.920;2023-07-08T02:51:01;23.00;48.80
3602;DHT22;1815;50.950;6.920;2023-07-08T02:53:28;23.00;49.10
3602;DHT22;1815;50.950;6.920;2023-07-08T02:55:53;22.90;48.90
3602;DHT22;1815;50.950;6.920;2023-07-08T02:58:19;22.90;49.00
3602;DHT22;1815;50.950;6.920;2023-07-08T03:00:45;22.90;49.10
3602;DHT22;1815;50.950;6.920;2023-07-08T03:03:11;22.80;49.00
3602;DHT22;1815;50.950;6.920;2023-07-08T03:05:36;22.80;49.20
3602;DHT22;1815;50.950;6.920;2023-07-08T03:08:02;22.70;49.20
3602;DHT22;1815;50.950;6.920;2023-07-08T03:10:28;22.70;49.30
3602;DHT22;1815;50.950;6.920;2023-07-08T03:12:54;22.70;49.40
3602;DHT22;1815;50.950;6.920;2023-07-08T03:15:19;22.60;49.40
3602;DHT22;1815;50.950;6.920;2023-07-08T03:17:45;22.60;49.50
3602;DHT22;1815;50.950;6.920;2023-07-08T03:20:12;22.50;49.60
3602;DHT22;1815;50.950;6.920;2023-07-08T03:22:38;22.40;49.70
3602;DHT22;1815;50.950;6.920;2023-07-08T03:25:04;22.40;49.90
3602;DHT22;1815;50.950;6.920;2023-07-08T03:27:30;22.30;50.00
3602;DHT22;1815;50.950;6.920;2023-07-08T03:29:56;22.30;50.80
3602;DHT22;1815;50.950;6.920;2023-07-08T03:32:21;22.30;50.20
3602;DHT22;1815;50.950;6.920;2023-07-08T03:34:47;22.30;50.30
3602;DHT22;1815;50.950;6.920;2023-07-08T03:37:13;22.30;50.40
3602;DHT22;1815;50.950;6.920;2023-07-08T03:39:38;22.30;50.50
3602;DHT22;1815;50.950;6.920;2023-07-08T03:42:05;22.40;50.70
3602;DHT22;1815;50.950;6.920;2023-07-08T03:44:30;22.40;51.30
3602;DHT22;1815;50.950;6.920;2023-07-08T03:46:56;22.40;50.90
3602;DHT22;1815;50.950;6.920;2023-07-08T03:49:22;22.40;51.10
3602;DHT22;1815;50.950;6.920;2023-07-08T03:51:52;22.50;51.30
3602;DHT22;1815;50.950;6.920;2023-07-08T03:54:21;22.50;51.30
3602;DHT22;1815;50.950;6.920;2023-07-08T03:56:47;22.60;51.20
3602;DHT22;1815;50.950;6.920;2023-07-08T03:59:15;22.60;51.20
3602;DHT22;1815;50.950;6.920;2023-07-08T04:01:41;22.60;51.20
3602;DHT22;1815;50.950;6.920;2023-07-08T04:04:12;22.60;51.50
3602;DHT22;1815;50.950;6.920;2023-07-08T04:06:38;22.70;51.50
3602;DHT22;1815;50.950;6.920;2023-07-08T04:09:04;22.70;51.50
3602;DHT22;1815;50.950;6.920;2023-07-08T04:11:29;22.70;51.30
3602;DHT22;1815;50.950;6.920;2023-07-08T04:13:55;22.70;51.30
3602;DHT22;1815;50.950;6.920;2023-07-08T04:16:29;22.70;51.50
3602;DHT22;1815;50.950;6.920;2023-07-08T04:18:56;22.70;51.50
3602;DHT22;1815;50.950;6.920;2023-07-08T04:21:23;22.70;51.30
3602;DHT22;1815;50.950;6.920;2023-07-08T04:23:51;22.70;51.60
3602;DHT22;1815;50.950;6.920;2023-07-08T04:26:17;22.70;51.70
3602;DHT22;1815;50.950;6.920;2023-07-08T04:28:44;22.70;51.70
3602;DHT22;1815;50.950;6.920;2023-07-08T04:31:10;22.70;51.70
3602;DHT22;1815;50.950;6.920;2023-07-08T04:33:35;22.70;51.80
3602;DHT22;1815;50.950;6.920;2023-07-08T04:36:01;22.70;51.80
3602;DHT22;1815;50.950;6.920;2023-07-08T04:38:28;22.80;52.00
3602;DHT22;1815;50.950;6.920;2023-07-08T04:40:54;22.80;52.40
3602;DHT22;1815;50.950;6.920;2023-07-08T04:43:21;22.80;52.50
3602;DHT22;1815;50.950;6.920;2023-07-08T04:45:51;23.00;52.30
3602;DHT22;1815;50.950;6.920;2023-07-08T04:48:19;23.00;52.40
3602;DHT22;1815;50.950;6.920;2023-07-08T04:50:48;23.10;52.30
3602;DHT22;1815;50.950;6.920;2023-07-08T04:53:14;23.10;52.20
3602;DHT22;1815;50.950;6.920;2023-07-08T04:55:50;23.20;52.30
3602;DHT22;1815;50.950;6.920;2023-07-08T04:58:16;23.20;52.20
3602;DHT22;1815;50.950;6.920;2023-07-08T05:00:42;23.30;52.10
3602;DHT22;1815;50.950;6.920;2023-07-08T05:03:08;23.40;52.30
3602;DHT22;1815;50.950;6.920;2023-07-08T05:05:33;23.50;52.20
3602;DHT22;1815;50.950;6.920;2023-07-08T05:07:59;23.50;52.10
3602;DHT22;1815;50.950;6.920;2023-07-08T05:10:26;23.60;52.80
3602;DHT22;1815;50.950;6.920;2023-07-08T05:12:51;23.60;52.00
3602;DHT22;1815;50.950;6.920;2023-07-08T05:15:17;23.60;52.00
3602;DHT22;1815;50.950;6.920;2023-07-08T05:17:43;23.70;52.10
3602;DHT22;1815;50.950;6.920;2023-07-08T05:20:11;23.70;52.00
3602;DHT22;1815;50.950;6.920;2023-07-08T05:22:38;23.80;52.10
3602;DHT22;1815;50.950;6.920;2023-07-08T05:25:04;23.90;52.10
3602;DHT22;1815;50.950;6.920;2023-07-08T05:27:31;24.00;52.20
3602;DHT22;1815;50.950;6.920;2023-07-08T05:30:00;24.20;52.30
3602;DHT22;1815;50.950;6.920;2023-07-08T05:32:26;24.30;52.10
3602;DHT22;1815;50.950;6.920;2023-07-08T05:34:52;24.30;51.90
3602;DHT22;1815;50.950;6.920;2023-07-08T05:37:18;24.50;52.00
3602;DHT22;1815;50.950;6.920;2023-07-08T05:39:47;24.50;51.80
3602;DHT22;1815;50.950;6.920;2023-07-08T05:42:12;24.60;51.70
3602;DHT22;1815;50.950;6.920;2023-07-08T05:44:38;24.70;51.70
3602;DHT22;1815;50.950;6.920;2023-07-08T05:47:04;24.80;51.70
3602;DHT22;1815;50.950;6.920;2023-07-08T05:49:29;24.90;51.60
3602;DHT22;1815;50.950;6.920;2023-07-08T05:51:55;25.00;52.10
3602;DHT22;1815;50.950;6.920;2023-07-08T05:54:21;25.10;51.50
3602;DHT22;1815;50.950;6.920;2023-07-08T05:56:46;25.30;51.50
3602;DHT22;1815;50.950;6.920;2023-07-08T05:59:12;25.50;51.30
3602;DHT22;1815;50.950;6.920;2023-07-08T06:01:38;25.60;51.10
3602;DHT22;1815;50.950;6.920;2023-07-08T06:04:03;25.90;51.20
3602;DHT22;1815;50.950;6.920;2023-07-08T06:06:29;26.20;51.50
3602;DHT22;1815;50.950;6.920;2023-07-08T06:08:55;26.80;52.00
3602;DHT22;1815;50.950;6.920;2023-07-08T06:11:21;27.60;51.90
3602;DHT22;1815;50.950;6.920;2023-07-08T06:13:47;28.40;52.20
3602;DHT22;1815;50.950;6.920;2023-07-08T06:16:14;29.30;51.00
3602;DHT22;1815;50.950;6.920;2023-07-08T06:18:39;30.00;50.80
3602;DHT22;1815;50.950;6.920;2023-07-08T06:21:05;30.90;50.60
3602;DHT22;1815;50.950;6.920;2023-07-08T06:23:31;31.80;50.60
3602;DHT22;1815;50.950;6.920;2023-07-08T06:25:57;32.80;50.20
3602;DHT22;1815;50.950;6.920;2023-07-08T06:28:23;33.40;47.00
3602;DHT22;1815;50.950;6.920;2023-07-08T06:30:49;34.00;47.20
3602;DHT22;1815;50.950;6.920;2023-07-08T06:33:15;34.60;45.20
3602;DHT22;1815;50.950;6.920;2023-07-08T06:35:41;34.70;44.40
3602;DHT22;1815;50.950;6.920;2023-07-08T06:38:07;35.10;44.30
3602;DHT22;1815;50.950;6.920;2023-07-08T06:40:34;35.50;42.70
3602;DHT22;1815;50.950;6.920;2023-07-08T06:43:00;35.80;42.50
3602;DHT22;1815;50.950;6.920;2023-07-08T06:45:41;36.30;42.40
3602;DHT22;1815;50.950;6.920;2023-07-08T06:48:08;36.60;41.50
3602;DHT22;1815;50.950;6.920;2023-07-08T06:50:33;37.10;41.30
3602;DHT22;1815;50.950;6.920;2023-07-08T06:52:59;37.40;39.70
3602;DHT22;1815;50.950;6.920;2023-07-08T06:55:25;37.70;39.10
3602;DHT22;1815;50.950;6.920;2023-07-08T06:57:50;37.90;38.00
3602;DHT22;1815;50.950;6.920;2023-07-08T07:00:17;37.90;37.70
3602;DHT22;1815;50.950;6.920;2023-07-08T07:02:42;38.00;35.90
3602;DHT22;1815;50.950;6.920;2023-07-08T07:05:09;37.70;35.40
3602;DHT22;1815;50.950;6.920;2023-07-08T07:07:34;37.50;34.60
3602;DHT22;1815;50.950;6.920;2023-07-08T07:10:00;37.20;34.80
3602;DHT22;1815;50.950;6.920;2023-07-08T07:12:26;36.90;35.20
3602;DHT22;1815;50.950;6.920;2023-07-08T07:14:52;37.00;35.70
3602;DHT22;1815;50.950;6.920;2023-07-08T07:17:23;37.30;36.10
3602;DHT22;1815;50.950;6.920;2023-07-08T07:19:49;37.50;35.70
3602;DHT22;1815;50.950;6.920;2023-07-08T07:22:15;37.70;34.80
3602;DHT22;1815;50.950;6.920;2023-07-08T07:24:41;37.70;35.50
3602;DHT22;1815;50.950;6.920;2023-07-08T07:27:08;37.80;35.00
3602;DHT22;1815;50.950;6.920;2023-07-08T07:29:47;37.80;35.10
3602;DHT22;1815;50.950;6.920;2023-07-08T07:32:15;37.80;35.10
3602;DHT22;1815;50.950;6.920;2023-07-08T07:34:42;38.00;35.10
3602;DHT22;1815;50.950;6.920;2023-07-08T07:37:13;38.00;34.40
3602;DHT22;1815;50.950;6.920;2023-07-08T07:39:39;38.10;34.50
3602;DHT22;1815;50.950;6.920;2023-07-08T07:42:05;37.80;33.80
3602;DHT22;1815;50.950;6.920;2023-07-08T07:44:31;37.70;34.20
3602;DHT22;1815;50.950;6.920;2023-07-08T07:46:57;38.10;34.80
3602;DHT22;1815;50.950;6.920;2023-07-08T07:49:22;38.40;34.30
3602;DHT22;1815;50.950;6.920;2023-07-08T07:51:48;38.50;33.80
3602;DHT22;1815;50.950;6.920;2023-07-08T07:54:15;38.50;33.50
3602;DHT22;1815;50.950;6.920;2023-07-08T07:56:40;38.70;33.40
3602;DHT22;1815;50.950;6.920;2023-07-08T07:59:06;38.80;33.00
3602;DHT22;1815;50.950;6.920;2023-07-08T08:01:32;39.00;33.40
3602;DHT22;1815;50.950;6.920;2023-07-08T08:03:58;39.50;34.10
3602;DHT22;1815;50.950;6.920;2023-07-08T08:06:23;39.90;33.30
3602;DHT22;1815;50.950;6.920;2023-07-08T08:08:50;40.10;32.40
3602;DHT22;1815;50.950;6.920;2023-07-08T08:11:16;40.10;31.50
3602;DHT22;1815;50.950;6.920;2023-07-08T08:13:42;40.00;31.50
3602;DHT22;1815;50.950;6.920;2023-07-08T08:16:08;40.10;31.70
3602;DHT22;1815;50.950;6.920;2023-07-08T08:18:34;39.90;30.70
3602;DHT22;1815;50.950;6.920;2023-07-08T08:21:00;39.80;31.00
3602;DHT22;1815;50.950;6.920;2023-07-08T08:23:26;39.80;31.40
3602;DHT22;1815;50.950;6.920;2023-07-08T08:25:52;39.40;30.40
3602;DHT22;1815;50.950;6.920;2023-07-08T08:28:18;38.90;30.10
3602;DHT22;1815;50.950;6.920;2023-07-08T08:30:48;38.30;30.20
3602;DHT22;1815;50.950;6.920;2023-07-08T08:33:13;38.20;31.40
3602;DHT22;1815;50.950;6.920;2023-07-08T08:35:39;38.40;31.50
3602;DHT22;1815;50.950;6.920;2023-07-08T08:38:05;38.30;31.40
3602;DHT22;1815;50.950;6.920;2023-07-08T08:40:32;38.30;31.50
3602;DHT22;1815;50.950;6.920;2023-07-08T08:43:02;38.50;32.00
3602;DHT22;1815;50.950;6.920;2023-07-08T08:45:29;39.00;32.20
3602;DHT22;1815;50.950;6.920;2023-07-08T08:48:01;39.50;33.70
3602;DHT22;1815;50.950;6.920;2023-07-08T08:50:35;40.10;31.70
3602;DHT22;1815;50.950;6.920;2023-07-08T08:53:06;40.30;30.50
3602;DHT22;1815;50.950;6.920;2023-07-08T08:55:35;40.40;30.40
3602;DHT22;1815;50.950;6.920;2023-07-08T09:05:59;40.00;29.70
3602;DHT22;1815;50.950;6.920;2023-07-08T09:08:35;40.30;30.00
3602;DHT22;1815;50.950;6.920;2023-07-08T09:13:59;40.20;28.80
3602;DHT22;1815;50.950;6.920;2023-07-08T09:16:26;40.10;29.30
3602;DHT22;1815;50.950;6.920;2023-07-08T09:19:02;39.90;29.20
3602;DHT22;1815;50.950;6.920;2023-07-08T09:24:49;39.70;29.10
3602;DHT22;1815;50.950;6.920;2023-07-08T09:27:15;39.60;29.30
3602;DHT22;1815;50.950;6.920;2023-07-08T09:29:41;39.90;29.50
3602;DHT22;1815;50.950;6.920;2023-07-08T09:32:21;40.10;29.10
3602;DHT22;1815;50.950;6.920;2023-07-08T09:34:56;39.90;28.20
3602;DHT22;1815;50.950;6.920;2023-07-08T09:37:37;39.70;28.60
3602;DHT22;1815;50.950;6.920;2023-07-08T09:42:44;39.80;29.40
3602;DHT22;1815;50.950;6.920;2023-07-08T09:45:18;40.10;29.60
3602;DHT22;1815;50.950;6.920;2023-07-08T09:47:44;40.60;29.50
3602;DHT22;1815;50.950;6.920;2023-07-08T09:50:23;40.90;29.30
3602;DHT22;1815;50.950;6.920;2023-07-08T09:52:52;41.20;29.10
3602;DHT22;1815;50.950;6.920;2023-07-08T09:55:18;41.40;28.80
3602;DHT22;1815;50.950;6.920;2023-07-08T09:57:47;41.50;28.70
3602;DHT22;1815;50.950;6.920;2023-07-08T10:00:19;41.50;28.30
3602;DHT22;1815;50.950;6.920;2023-07-08T10:02:55;41.50;28.30
3602;DHT22;1815;50.950;6.920;2023-07-08T10:05:42;41.30;28.20
3602;DHT22;1815;50.950;6.920;2023-07-08T10:08:37;41.10;27.90
3602;DHT22;1815;50.950;6.920;2023-07-08T10:11:28;40.80;27.70
3602;DHT22;1815;50.950;6.920;2023-07-08T10:13:59;40.70;28.10
3602;DHT22;1815;50.950;6.920;2023-07-08T10:16:32;40.70;28.40
3602;DHT22;1815;50.950;6.920;2023-07-08T10:18:59;40.80;28.40
3602;DHT22;1815;50.950;6.920;2023-07-08T10:21:39;40.70;28.20
3602;DHT22;1815;50.950;6.920;2023-07-08T10:24:31;40.70;28.60
3602;DHT22;1815;50.950;6.920;2023-07-08T10:36:05;41.40;28.20
3602;DHT22;1815;50.950;6.920;2023-07-08T10:44:02;42.30;27.90
3602;DHT22;1815;50.950;6.920;2023-07-08T10:54:53;42.50;27.40
3602;DHT22;1815;50.950;6.920;2023-07-08T11:05:32;42.50;27.40
3602;DHT22;1815;50.950;6.920;2023-07-08T11:08:17;42.40;27.30
3602;DHT22;1815;50.950;6.920;2023-07-08T11:10:52;42.60;27.30
3602;DHT22;1815;50.950;6.920;2023-07-08T11:13:21;42.50;26.90
3602;DHT22;1815;50.950;6.920;2023-07-08T11:20:56;42.00;26.80
3602;DHT22;1815;50.950;6.920;2023-07-08T11:23:31;41.90;27.10
3602;DHT22;1815;50.950;6.920;2023-07-08T11:26:21;42.20;27.50
3602;DHT22;1815;50.950;6.920;2023-07-08T11:28:51;42.40;27.20
3602;DHT22;1815;50.950;6.920;2023-07-08T11:31:18;42.20;27.10
3602;DHT22;1815;50.950;6.920;2023-07-08T11:33:45;42.30;27.20
3602;DHT22;1815;50.950;6.920;2023-07-08T11:36:13;42.50;27.00
3602;DHT22;1815;50.950;6.920;2023-07-08T11:38:50;42.40;26.70
3602;DHT22;1815;50.950;6.920;2023-07-08T11:41:19;42.40;26.80
3602;DHT22;1815;50.950;6.920;2023-07-08T11:43:51;42.40;27.30
3602;DHT22;1815;50.950;6.920;2023-07-08T11:46:20;42.40;26.90
3602;DHT22;1815;50.950;6.920;2023-07-08T11:48:49;42.10;26.70
3602;DHT22;1815;50.950;6.920;2023-07-08T11:51:31;41.80;26.60
3602;DHT22;1815;50.950;6.920;2023-07-08T11:56:59;41.20;26.80
3602;DHT22;1815;50.950;6.920;2023-07-08T11:59:31;40.90;27.00
3602;DHT22;1815;50.950;6.920;2023-07-08T12:02:12;40.90;27.00
3602;DHT22;1815;50.950;6.920;2023-07-08T12:05:01;40.80;27.10
3602;DHT22;1815;50.950;6.920;2023-07-08T12:07:32;40.70;27.30
3602;DHT22;1815;50.950;6.920;2023-07-08T12:10:04;40.60;27.20
3602;DHT22;1815;50.950;6.920;2023-07-08T12:12:33;40.50;27.50
3602;DHT22;1815;50.950;6.920;2023-07-08T12:15:08;40.20;26.90
3602;DHT22;1815;50.950;6.920;2023-07-08T12:17:39;40.00;27.20
3602;DHT22;1815;50.950;6.920;2023-07-08T12:20:33;39.90;27.30
3602;DHT22;1815;50.950;6.920;2023-07-08T12:23:00;39.80;27.10
3602;DHT22;1815;50.950;6.920;2023-07-08T12:25:32;39.60;26.80
3602;DHT22;1815;50.950;6.920;2023-07-08T12:28:00;39.40;27.10
3602;DHT22;1815;50.950;6.920;2023-07-08T12:30:28;39.40;27.50
3602;DHT22;1815;50.950;6.920;2023-07-08T12:32:54;39.30;27.30
3602;DHT22;1815;50.950;6.920;2023-07-08T12:35:26;39.30;27.60
3602;DHT22;1815;50.950;6.920;2023-07-08T12:37:56;39.30;27.80
3602;DHT22;1815;50.950;6.920;2023-07-08T12:40:23;39.30;27.70
3602;DHT22;1815;50.950;6.920;2023-07-08T12:42:50;39.30;27.90
3602;DHT22;1815;50.950;6.920;2023-07-08T12:45:18;39.20;28.00
3602;DHT22;1815;50.950;6.920;2023-07-08T12:47:45;39.10;28.10
3602;DHT22;1815;50.950;6.920;2023-07-08T12:50:12;38.90;27.90
3602;DHT22;1815;50.950;6.920;2023-07-08T12:52:38;38.70;27.90
3602;DHT22;1815;50.950;6.920;2023-07-08T12:55:05;38.50;28.10
3602;DHT22;1815;50.950;6.920;2023-07-08T12:57:31;38.30;28.10
3602;DHT22;1815;50.950;6.920;2023-07-08T12:59:58;38.00;28.00
3602;DHT22;1815;50.950;6.920;2023-07-08T13:02:25;37.80;28.30
3602;DHT22;1815;50.950;6.920;2023-07-08T13:04:58;37.60;28.60
3602;DHT22;1815;50.950;6.920;2023-07-08T13:07:37;37.50;28.80
3602;DHT22;1815;50.950;6.920;2023-07-08T13:10:16;37.40;29.20
3602;DHT22;1815;50.950;6.920;2023-07-08T13:12:43;37.30;28.90
3602;DHT22;1815;50.950;6.920;2023-07-08T13:15:20;37.30;28.70
3602;DHT22;1815;50.950;6.920;2023-07-08T13:17:47;37.20;28.90
3602;DHT22;1815;50.950;6.920;2023-07-08T13:20:16;37.30;28.90
3602;DHT22;1815;50.950;6.920;2023-07-08T13:22:46;37.20;28.80
3602;DHT22;1815;50.950;6.920;2023-07-08T13:25:17;37.10;28.60
3602;DHT22;1815;50.950;6.920;2023-07-08T13:27:54;37.00;28.70
3602;DHT22;1815;50.950;6.920;2023-07-08T13:30:23;36.90;28.90
3602;DHT22;1815;50.950;6.920;2023-07-08T13:32:54;36.80;28.90
3602;DHT22;1815;50.950;6.920;2023-07-08T13:35:39;36.80;29.10
3602;DHT22;1815;50.950;6.920;2023-07-08T13:38:05;36.70;29.30
3602;DHT22;1815;50.950;6.920;2023-07-08T13:40:32;36.80;29.30
3602;DHT22;1815;50.950;6.920;2023-07-08T13:42:58;36.80;29.30
3602;DHT22;1815;50.950;6.920;2023-07-08T13:45:30;36.80;29.40
3602;DHT22;1815;50.950;6.920;2023-07-08T13:48:11;36.70;29.50
3602;DHT22;1815;50.950;6.920;2023-07-08T13:50:50;36.70;29.50
3602;DHT22;1815;50.950;6.920;2023-07-08T13:53:21;36.80;29.70
3602;DHT22;1815;50.950;6.920;2023-07-08T13:55:48;36.80;29.60
3602;DHT22;1815;50.950;6.920;2023-07-08T13:58:16;36.80;29.70
3602;DHT22;1815;50.950;6.920;2023-07-08T14:00:42;36.80;29.70
3602;DHT22;1815;50.950;6.920;2023-07-08T14:03:11;36.90;29.80
3602;DHT22;1815;50.950;6.920;2023-07-08T14:05:38;36.90;29.80
3602;DHT22;1815;50.950;6.920;2023-07-08T14:08:12;36.90;29.80
3602;DHT22;1815;50.950;6.920;2023-07-08T14:10:38;36.90;30.70
3602;DHT22;1815;50.950;6.920;2023-07-08T14:13:04;36.80;30.00
3602;DHT22;1815;50.950;6.920;2023-07-08T14:15:30;36.80;30.00
3602;DHT22;1815;50.950;6.920;2023-07-08T14:17:56;36.70;30.00
3602;DHT22;1815;50.950;6.920;2023-07-08T14:20:23;36.70;30.10
3602;DHT22;1815;50.950;6.920;2023-07-08T14:22:50;36.60;30.30
3602;DHT22;1815;50.950;6.920;2023-07-08T14:25:17;36.60;30.30
3602;DHT22;1815;50.950;6.920;2023-07-08T14:27:46;36.70;30.40
3602;DHT22;1815;50.950;6.920;2023-07-08T14:30:12;36.60;30.50
3602;DHT22;1815;50.950;6.920;2023-07-08T14:32:38;36.60;30.50
3602;DHT22;1815;50.950;6.920;2023-07-08T14:35:28;36.60;30.50
3602;DHT22;1815;50.950;6.920;2023-07-08T14:37:54;36.60;30.70
3602;DHT22;1815;50.950;6.920;2023-07-08T14:43:15;36.80;31.00
3602;DHT22;1815;50.950;6.920;2023-07-08T14:45:49;36.80;31.10
3602;DHT22;1815;50.950;6.920;2023-07-08T14:48:16;36.90;31.10
3602;DHT22;1815;50.950;6.920;2023-07-08T14:50:42;37.00;30.90
3602;DHT22;1815;50.950;6.920;2023-07-08T14:53:08;36.90;30.90
3602;DHT22;1815;50.950;6.920;2023-07-08T14:55:35;36.80;30.90
3602;DHT22;1815;50.950;6.920;2023-07-08T14:58:02;36.70;30.80
3602;DHT22;1815;50.950;6.920;2023-07-08T15:00:28;36.80;31.10
3602;DHT22;1815;50.950;6.920;2023-07-08T15:02:55;36.80;31.10
3602;DHT22;1815;50.950;6.920;2023-07-08T15:05:23;37.00;31.00
3602;DHT22;1815;50.950;6.920;2023-07-08T15:07:50;36.90;31.00
3602;DHT22;1815;50.950;6.920;2023-07-08T15:10:18;37.00;31.20
3602;DHT22;1815;50.950;6.920;2023-07-08T15:12:46;37.10;31.20
3602;DHT22;1815;50.950;6.920;2023-07-08T15:15:26;37.20;31.30
3602;DHT22;1815;50.950;6.920;2023-07-08T15:17:52;37.20;31.20
3602;DHT22;1815;50.950;6.920;2023-07-08T15:20:19;37.30;31.10
3602;DHT22;1815;50.950;6.920;2023-07-08T15:22:45;37.30;31.20
3602;DHT22;1815;50.950;6.920;2023-07-08T15:25:12;37.30;31.10
3602;DHT22;1815;50.950;6.920;2023-07-08T15:27:40;37.20;31.10
3602;DHT22;1815;50.950;6.920;2023-07-08T15:30:27;37.20;31.50
3602;DHT22;1815;50.950;6.920;2023-07-08T15:32:53;37.20;31.50
3602;DHT22;1815;50.950;6.920;2023-07-08T15:35:26;37.20;31.40
3602;DHT22;1815;50.950;6.920;2023-07-08T15:37:56;37.10;31.50
3602;DHT22;1815;50.950;6.920;2023-07-08T15:40:23;37.20;31.50
3602;DHT22;1815;50.950;6.920;2023-07-08T15:42:52;37.20;31.70
3602;DHT22;1815;50.950;6.920;2023-07-08T15:45:23;37.20;31.90
3602;DHT22;1815;50.950;6.920;2023-07-08T15:47:50;37.20;31.80
3602;DHT22;1815;50.950;6.920;2023-07-08T15:50:18;37.20;31.90
3602;DHT22;1815;50.950;6.920;2023-07-08T15:52:44;37.20;32.00
3602;DHT22;1815;50.950;6.920;2023-07-08T15:55:12;37.10;31.90
3602;DHT22;1815;50.950;6.920;2023-07-08T15:57:46;37.10;32.00
3602;DHT22;1815;50.950;6.920;2023-07-08T16:00:19;37.00;32.30
3602;DHT22;1815;50.950;6.920;2023-07-08T16:02:48;37.00;32.30
3602;DHT22;1815;50.950;6.920;2023-07-08T16:05:15;37.00;32.20
3602;DHT22;1815;50.950;6.920;2023-07-08T16:07:41;36.90;32.30
3602;DHT22;1815;50.950;6.920;2023-07-08T16:10:07;36.80;32.30
3602;DHT22;1815;50.950;6.920;2023-07-08T16:12:33;36.80;32.30
3602;DHT22;1815;50.950;6.920;2023-07-08T16:14:59;36.70;32.30
3602;DHT22;1815;50.950;6.920;2023-07-08T16:17:25;36.70;32.40
3602;DHT22;1815;50.950;6.920;2023-07-08T16:19:51;36.60;32.40
3602;DHT22;1815;50.950;6.920;2023-07-08T16:22:16;36.60;32.50
3602;DHT22;1815;50.950;6.920;2023-07-08T16:24:42;36.60;32.60
3602;DHT22;1815;50.950;6.920;2023-07-08T16:27:09;36.60;32.70
3602;DHT22;1815;50.950;6.920;2023-07-08T16:29:36;36.60;32.70
3602;DHT22;1815;50.950;6.920;2023-07-08T16:32:02;36.50;32.90
3602;DHT22;1815;50.950;6.920;2023-07-08T16:34:27;36.50;33.00
3602;DHT22;1815;50.950;6.920;2023-07-08T16:36:53;36.50;33.20
3602;DHT22;1815;50.950;6.920;2023-07-08T16:39:19;36.50;33.20
3602;DHT22;1815;50.950;6.920;2023-07-08T16:41:44;36.50;33.50
3602;DHT22;1815;50.950;6.920;2023-07-08T16:44:14;36.50;33.70
3602;DHT22;1815;50.950;6.920;2023-07-08T16:46:41;36.50;33.70
3602;DHT22;1815;50.950;6.920;2023-07-08T16:49:08;36.50;33.80
3602;DHT22;1815;50.950;6.920;2023-07-08T16:51:35;36.50;34.00
3602;DHT22;1815;50.950;6.920;2023-07-08T16:54:12;36.40;34.00
3602;DHT22;1815;50.950;6.920;2023-07-08T16:56:39;36.40;34.20
3602;DHT22;1815;50.950;6.920;2023-07-08T16:59:06;36.40;34.30
3602;DHT22;1815;50.950;6.920;2023-07-08T17:01:31;36.30;34.30
3602;DHT22;1815;50.950;6.920;2023-07-08T17:03:57;36.30;34.50
3602;DHT22;1815;50.950;6.920;2023-07-08T17:06:24;36.30;34.60
3602;DHT22;1815;50.950;6.920;2023-07-08T17:08:50;36.40;34.90
3602;DHT22;1815;50.950;6.920;2023-07-08T17:11:16;36.30;35.00
3602;DHT22;1815;50.950;6.920;2023-07-08T17:13:42;36.20;34.50
3602;DHT22;1815;50.950;6.920;2023-07-08T17:16:14;36.00;34.30